.
WxDataArchive / Data Records for 2013-07-19
2013-07-18 July 2013 2013-07-20

Data Records for Friday, 19 July 2013

Time	Temp	Chill	HIndex	Humid	Dewpt	 Wind 	HiWind	WindDir	Rain 	Barom 
-----	----	-----	------	-----	-----	------	------	-------	-----	----- 
00:00	80.3	80.3	84.6	78	72.8	0	0	---	0.00	29.977 
00:05	80.1	80.1	84.2	78	72.6	0	0	---	0.00	29.977 
00:10	79.9	79.9	83.8	78	72.4	0	0	---	0.00	29.977 
00:15	79.8	79.8	83.7	79	72.7	0	0	---	0.00	29.975 
00:20	79.6	79.6	83.4	80	72.9	0	0	---	0.00	29.975 
00:25	79.6	79.6	83.4	80	72.9	0	0	---	0.00	29.975 
00:30	79.4	79.4	83.1	81	73.0	0	0	---	0.00	29.975 
00:35	79.2	79.2	82.7	81	72.8	0	0	---	0.00	29.975 
00:40	79.2	79.2	82.7	81	72.8	0	0	---	0.00	29.975 
00:45	79.2	79.2	82.7	81	72.8	0	0	---	0.00	29.973 
00:50	79.2	79.2	82.6	80	72.5	0	0	---	0.00	29.973 
00:55	79.4	79.4	83.0	80	72.7	0	0	---	0.00	29.973 
01:00	79.6	79.6	83.4	80	72.9	0	1	292	0.00	29.970 
01:05	79.6	79.6	83.3	79	72.5	0	0	---	0.00	29.970 
01:10	79.8	79.8	83.7	79	72.7	0	0	---	0.00	29.970 
01:15	79.9	79.9	83.8	78	72.4	0	1	292	0.00	29.969 
01:20	80.1	80.1	84.2	78	72.6	0	0	---	0.00	29.969 
01:25	79.9	79.9	83.8	78	72.4	0	0	---	0.00	29.969 
01:30	79.9	79.9	83.8	78	72.4	0	0	---	0.00	29.965 
01:35	80.1	80.1	84.0	77	72.2	0	0	---	0.00	29.965 
01:40	79.9	79.9	83.8	78	72.4	0	0	---	0.00	29.965 
01:45	79.9	79.9	83.8	78	72.4	0	0	---	0.00	29.960 
01:50	79.8	79.8	83.6	78	72.3	0	1	292	0.00	29.960 
01:55	79.8	79.8	83.6	78	72.3	0	0	---	0.00	29.960 
02:00	79.8	79.8	83.6	78	72.3	0	0	---	0.00	29.959 
02:05	79.8	79.8	83.6	78	72.3	0	0	---	0.00	29.959 
02:10	79.8	79.8	83.6	78	72.3	0	0	---	0.00	29.959 
02:15	79.6	79.6	83.3	79	72.5	0	0	---	0.00	29.952 
02:20	79.6	79.6	83.3	79	72.5	0	0	---	0.00	29.952 
02:25	79.6	79.6	83.3	79	72.5	0	0	---	0.00	29.952 
02:30	79.4	79.4	82.9	79	72.3	0	0	---	0.00	29.948 
02:35	79.4	79.4	82.9	79	72.3	0	0	---	0.00	29.948 
02:40	79.2	79.2	82.6	80	72.5	0	0	---	0.00	29.948 
02:45	79.0	79.0	82.2	80	72.3	0	1	292	0.00	29.945 
02:50	79.0	79.0	82.2	80	72.3	0	0	---	0.00	29.945 
02:55	78.8	78.8	81.8	80	72.1	0	0	---	0.00	29.945 
03:00	78.8	78.8	81.8	80	72.1	0	0	---	0.00	29.937 
03:05	78.6	78.6	81.5	81	72.3	0	0	---	0.00	29.937 
03:10	78.6	78.6	81.5	81	72.3	0	0	---	0.00	29.937 
03:15	78.6	78.6	81.5	81	72.3	0	0	---	0.00	29.932 
03:20	78.5	78.5	81.3	81	72.2	0	0	---	0.00	29.932 
03:25	78.5	78.5	81.3	81	72.2	0	1	292	0.00	29.932 
03:30	78.5	78.5	81.3	81	72.2	0	1	292	0.00	29.930 
03:35	78.5	78.5	81.3	81	72.2	0	1	292	0.00	29.930 
03:40	78.5	78.5	81.3	81	72.2	0	0	---	0.00	29.930 
03:45	78.5	78.5	81.3	81	72.2	0	0	---	0.00	29.927 
03:50	78.5	78.5	81.2	80	71.8	0	1	292	0.00	29.927 
03:55	78.5	78.5	81.2	80	71.8	0	0	---	0.00	29.927 
04:00	78.6	78.6	81.4	80	71.9	0	1	292	0.00	29.924 
04:05	78.6	78.6	81.4	80	71.9	0	0	---	0.00	29.924 
04:10	78.6	78.6	81.4	80	71.9	0	1	292	0.00	29.924 
04:15	78.6	78.6	81.4	80	71.9	0	1	292	0.00	29.924 
04:20	78.5	78.5	81.2	80	71.8	0	0	---	0.00	29.924 
04:25	78.5	78.5	81.2	80	71.8	0	1	292	0.00	29.924 
04:30	78.3	78.3	80.9	81	72.0	0	0	---	0.00	29.926 
04:35	78.1	78.1	80.5	81	71.8	0	0	---	0.00	29.926 
04:40	77.9	77.9	80.1	81	71.6	0	1	292	0.00	29.926 
04:45	77.9	77.9	80.1	81	71.6	0	1	292	0.00	29.920 
04:50	77.9	77.9	80.1	81	71.6	0	1	292	0.00	29.920 
04:55	77.9	77.9	80.1	81	71.6	0	1	292	0.00	29.920 
05:00	77.9	77.9	80.1	81	71.6	0	0	---	0.00	29.918 
05:05	77.9	77.9	80.1	81	71.6	0	1	292	0.00	29.918 
05:10	77.7	77.7	79.8	81	71.4	0	0	---	0.00	29.918 
05:15	77.7	77.7	79.8	81	71.4	0	1	292	0.00	29.915 
05:20	77.7	77.7	79.8	81	71.4	0	0	---	0.00	29.915 
05:25	77.7	77.7	79.8	81	71.4	0	0	---	0.00	29.915 
05:30	77.6	77.6	79.6	81	71.3	0	1	292	0.00	29.915 
05:35	77.6	77.6	79.6	82	71.7	0	1	292	0.00	29.915 
05:40	77.4	77.4	79.2	82	71.5	0	1	292	0.00	29.915 
05:45	77.4	77.4	79.2	82	71.5	0	0	---	0.00	29.917 
05:50	77.2	77.2	78.9	82	71.3	0	0	---	0.00	29.917 
05:55	77.2	77.2	78.9	82	71.3	0	1	292	0.00	29.917 
06:00	77.0	77.0	78.5	83	71.4	0	1	292	0.00	29.919 
06:05	77.0	77.0	78.5	83	71.4	0	1	292	0.00	29.919 
06:10	77.0	77.0	78.5	83	71.4	0	1	292	0.00	29.919 
06:15	77.0	77.0	78.5	83	71.4	0	1	292	0.00	29.916 
06:20	76.8	76.8	78.1	83	71.2	0	1	292	0.00	29.916 
06:25	76.8	76.8	78.1	83	71.2	0	1	292	0.00	29.916 
06:30	76.8	76.8	78.1	83	71.2	0	1	292	0.00	29.917 
06:35	76.8	76.8	78.1	83	71.2	0	1	292	0.00	29.917 
06:40	76.8	76.8	78.1	83	71.2	0	1	292	0.00	29.917 
06:45	76.8	76.8	78.1	83	71.2	0	1	292	0.00	29.916 
06:50	76.8	76.8	78.1	83	71.2	0	1	292	0.00	29.916 
06:55	76.8	76.8	78.1	83	71.2	0	1	292	0.00	29.916 
07:00	77.0	77.0	78.5	83	71.4	0	1	292	0.00	29.917 
07:05	77.0	77.0	78.5	83	71.4	0	1	292	0.00	29.917 
07:10	77.2	77.2	78.9	82	71.3	0	1	292	0.00	29.917 
07:15	77.2	77.2	78.9	82	71.3	0	1	292	0.00	29.923 
07:20	77.4	77.4	79.2	82	71.5	0	1	292	0.00	29.923 
07:25	77.6	77.6	79.6	81	71.3	0	2	315	0.00	29.923 
07:30	77.7	77.7	79.8	81	71.4	0	2	315	0.00	29.922 
07:35	78.1	78.1	80.5	80	71.4	0	1	315	0.00	29.922 
07:40	78.5	78.5	81.2	80	71.8	0	2	315	0.00	29.922 
07:45	78.6	78.6	81.4	79	71.5	0	2	315	0.00	29.920 
07:50	78.8	78.8	81.7	78	71.3	0	2	315	0.00	29.920 
07:55	79.0	79.0	82.0	78	71.5	1	3	315	0.00	29.920 
08:00	79.4	79.4	82.7	77	71.5	1	5	315	0.00	29.924 
08:05	79.6	79.6	83.0	76	71.3	1	3	315	0.00	29.924 
08:10	79.9	79.9	83.5	76	71.6	1	3	270	0.00	29.924 
08:15	80.1	80.1	83.9	76	71.8	1	4	270	0.00	29.925 
08:20	80.5	80.5	84.5	75	71.8	1	2	338	0.00	29.925 
08:25	80.9	80.9	85.1	74	71.8	1	3	315	0.00	29.925 
08:30	81.1	81.1	85.5	74	72.0	1	2	315	0.00	29.926 
08:35	81.2	81.2	85.7	74	72.1	1	4	292	0.00	29.926 
08:40	81.4	81.4	85.9	73	71.9	1	3	292	0.00	29.926 
08:45	81.6	81.6	86.5	74	72.5	1	3	292	0.00	29.923 
08:50	81.8	81.8	86.7	73	72.3	1	3	292	0.00	29.923 
08:55	82.0	82.0	87.1	73	72.5	1	3	315	0.00	29.923 
09:00	82.4	82.4	87.7	72	72.4	1	3	315	0.00	29.920 
09:05	82.6	82.6	88.1	72	72.6	1	4	315	0.00	29.920 
09:10	82.8	82.8	88.2	71	72.4	1	3	315	0.00	29.920 
09:15	83.2	83.2	89.1	71	72.8	1	3	315	0.00	29.919 
09:20	83.4	83.4	89.2	70	72.6	1	4	0	0.00	29.919 
09:25	83.6	83.6	89.6	70	72.8	1	3	248	0.00	29.919 
09:30	83.8	83.8	90.0	70	72.9	1	3	248	0.00	29.924 
09:35	84.0	84.0	90.2	69	72.7	1	3	292	0.00	29.924 
09:40	84.1	84.1	90.4	69	72.8	1	2	292	0.00	29.924 
09:45	84.1	84.1	90.4	69	72.8	2	4	270	0.00	29.924 
09:50	84.3	84.3	90.8	69	73.0	2	4	270	0.00	29.924 
09:55	84.5	84.5	90.9	68	72.7	2	4	315	0.00	29.924 
10:00	84.7	84.7	91.3	68	72.9	2	5	292	0.00	29.927 
10:05	84.9	84.9	91.4	67	72.7	2	4	248	0.00	29.927 
10:10	85.1	85.1	91.8	67	72.9	2	5	270	0.00	29.927 
10:15	85.5	85.5	92.3	66	72.8	2	5	270	0.00	29.928 
10:20	85.7	85.7	92.7	66	73.0	1	4	270	0.00	29.928 
10:25	85.9	85.9	92.4	64	72.3	1	5	270	0.00	29.928 
10:30	86.3	86.3	93.2	64	72.7	2	4	270	0.00	29.923 
10:35	86.5	86.5	93.7	64	72.8	2	5	270	0.00	29.923 
10:40	86.7	86.7	93.7	63	72.6	2	5	270	0.00	29.923 
10:45	87.0	87.0	94.3	63	72.8	1	4	270	0.00	29.925 
10:50	87.2	87.2	94.8	63	73.0	1	5	270	0.00	29.925 
10:55	87.4	87.4	94.3	61	72.3	2	5	270	0.00	29.925 
11:00	87.4	87.4	94.8	62	72.7	2	5	270	0.00	29.918 
11:05	87.6	87.6	94.7	61	72.5	3	6	270	0.00	29.918 
11:10	87.6	87.6	94.3	60	72.0	2	5	270	0.00	29.918 
11:15	88.0	88.0	95.1	60	72.3	1	3	270	0.00	29.914 
11:20	88.0	88.0	94.7	59	71.8	3	9	270	0.00	29.914 
11:25	88.0	88.0	95.1	60	72.3	3	5	270	0.00	29.914 
11:30	88.2	88.2	95.6	60	72.5	2	5	270	0.00	29.915 
11:35	88.4	88.4	95.5	59	72.2	2	6	270	0.00	29.915 
11:40	88.6	88.6	96.5	60	72.9	2	5	270	0.00	29.915 
11:45	88.6	88.6	96.5	60	72.9	2	7	248	0.00	29.913 
11:50	88.8	88.8	96.4	59	72.6	2	5	270	0.00	29.913 
11:55	88.8	88.8	95.9	58	72.1	2	5	292	0.00	29.913 
12:00	89.0	89.0	96.8	59	72.8	2	4	270	0.00	29.913 
12:05	89.3	89.3	96.5	57	72.0	2	5	248	0.00	29.913 
12:10	89.5	89.5	96.9	57	72.2	2	6	270	0.00	29.913 
12:15	89.5	89.5	96.9	57	72.2	2	4	270	0.00	29.909 
12:20	89.3	89.3	96.5	57	72.0	3	6	270	0.00	29.909 
12:25	89.3	89.3	96.5	57	72.0	2	5	270	0.00	29.909 
12:30	89.3	89.3	96.0	56	71.5	2	5	270	0.00	29.905 
12:35	89.5	89.5	96.9	57	72.2	2	5	270	0.00	29.905 
12:40	89.7	89.7	97.9	58	72.9	2	7	270	0.00	29.905 
12:45	90.1	90.1	97.7	56	72.2	2	5	248	0.00	29.899 
12:50	90.3	90.3	97.6	55	71.9	2	5	270	0.00	29.899 
12:55	90.1	90.1	97.7	56	72.2	2	4	270	0.00	29.899 
13:00	89.9	89.9	97.8	57	72.6	2	6	270	0.00	29.893 
13:05	89.9	89.9	96.8	55	71.5	2	5	270	0.00	29.893 
13:10	89.7	89.7	96.4	55	71.3	2	6	248	0.00	29.893 
13:15	89.7	89.7	97.4	57	72.4	2	6	270	0.00	29.884 
13:20	89.5	89.5	96.9	57	72.2	2	6	270	0.00	29.884 
13:25	89.5	89.5	97.4	58	72.7	2	6	270	0.00	29.884 
13:30	89.9	89.9	97.3	56	72.1	1	5	248	0.00	29.878 
13:35	90.1	90.1	97.7	56	72.2	2	5	270	0.00	29.878 
13:40	90.3	90.3	97.6	55	71.9	2	5	270	0.00	29.878 
13:45	90.5	90.5	97.5	54	71.5	3	6	248	0.00	29.869 
13:50	90.7	90.7	98.5	55	72.3	2	5	270	0.00	29.869 
13:55	91.0	91.0	98.1	53	71.4	2	6	270	0.00	29.869 
14:00	90.7	90.7	96.9	52	70.6	3	7	270	0.00	29.868 
14:05	91.0	91.0	98.1	53	71.4	2	4	270	0.00	29.868 
14:10	91.4	91.4	98.4	52	71.3	2	5	270	0.00	29.868 
14:15	91.4	91.4	99.5	54	72.4	2	6	270	0.00	29.857 
14:20	91.4	91.4	98.4	52	71.3	3	8	270	0.00	29.857 
14:25	91.4	91.4	98.9	53	71.8	2	4	270	0.00	29.857 
14:30	91.6	91.6	99.9	54	72.6	1	3	292	0.00	29.850 
14:35	91.6	91.6	99.4	53	72.0	3	10	292	0.00	29.850 
14:40	91.2	91.2	98.5	53	71.6	2	6	270	0.00	29.850 
14:45	91.0	91.0	98.6	54	72.0	2	4	270	0.00	29.847 
14:50	90.7	90.7	97.4	53	71.2	1	6	248	0.00	29.847 
14:55	91.0	91.0	98.1	53	71.4	2	6	270	0.00	29.847 
15:00	91.4	91.4	98.4	52	71.3	2	6	248	0.00	29.837 
15:05	91.2	91.2	98.5	53	71.6	2	6	270	0.00	29.837 
15:10	91.0	91.0	98.1	53	71.4	2	6	270	0.00	29.837 
15:15	91.2	91.2	97.4	51	70.5	2	4	270	0.00	29.828 
15:20	91.4	91.4	98.9	53	71.8	2	6	248	0.00	29.828 
15:25	91.6	91.6	99.4	53	72.0	2	5	292	0.00	29.828 
15:30	91.6	91.6	98.8	52	71.4	3	6	270	0.00	29.821 
15:35	91.0	91.0	97.5	52	70.9	2	4	270	0.00	29.821 
15:40	91.2	91.2	98.0	52	71.1	2	5	270	0.00	29.821 
15:45	91.2	91.2	97.4	51	70.5	3	6	270	0.00	29.818 
15:50	91.4	91.4	97.3	50	70.1	3	6	270	0.00	29.818 
15:55	91.8	91.8	97.6	49	69.9	2	5	292	0.00	29.818 
16:00	92.1	92.1	98.8	50	70.7	2	4	270	0.00	29.813 
16:05	92.3	92.3	99.7	51	71.5	1	6	270	0.00	29.813 
16:10	92.1	92.1	98.2	49	70.1	3	6	270	0.00	29.813 
16:15	91.8	91.8	98.7	51	71.0	1	5	270	0.00	29.804 
16:20	92.1	92.1	98.2	49	70.1	2	5	248	0.00	29.804 
16:25	92.3	92.3	99.2	50	70.9	2	7	248	0.00	29.804 
16:30	92.5	92.5	99.0	49	70.5	2	5	270	0.00	29.799 
16:35	92.5	92.5	99.0	49	70.5	2	7	270	0.00	29.799 
16:40	92.1	92.1	98.8	50	70.7	2	6	270	0.00	29.799 
16:45	92.1	92.1	98.8	50	70.7	1	5	292	0.00	29.797 
16:50	92.3	92.3	99.2	50	70.9	2	6	292	0.00	29.797 
16:55	92.1	92.1	98.8	50	70.7	2	4	270	0.00	29.797 
17:00	91.6	91.6	98.3	51	70.9	2	5	292	0.00	29.796 
17:05	91.4	91.4	97.8	51	70.7	2	4	292	0.00	29.796 
17:10	91.0	91.0	97.5	52	70.9	2	4	270	0.00	29.796 
17:15	90.7	90.7	96.9	52	70.6	2	4	270	0.00	29.791 
17:20	91.2	91.2	97.4	51	70.5	2	5	270	0.00	29.791 
17:25	91.6	91.6	98.3	51	70.9	2	6	270	0.00	29.791 
17:30	92.1	92.1	98.8	50	70.7	2	6	270	0.00	29.789 
17:35	91.8	91.8	98.7	51	71.0	2	4	270	0.00	29.789 
17:40	91.4	91.4	97.3	50	70.1	1	5	270	0.00	29.789 
17:45	91.4	91.4	97.3	50	70.1	2	5	270	0.00	29.785 
17:50	91.6	91.6	97.7	50	70.3	2	7	270	0.00	29.785 
17:55	91.4	91.4	97.8	51	70.7	2	4	292	0.00	29.785 
18:00	91.4	91.4	97.8	51	70.7	2	4	292	0.00	29.777 
18:05	91.2	91.2	98.0	52	71.1	1	4	248	0.00	29.777 
18:10	91.2	91.2	97.4	51	70.5	2	5	270	0.00	29.777 
18:15	91.0	91.0	97.5	52	70.9	1	4	292	0.00	29.776 
18:20	90.5	90.5	96.5	52	70.4	1	5	270	0.00	29.776 
18:25	90.1	90.1	96.2	53	70.6	1	3	270	0.00	29.776 
18:30	89.9	89.9	96.3	54	71.0	2	7	270	0.00	29.777 
18:35	90.1	90.1	96.7	54	71.2	2	5	270	0.00	29.777 
18:40	90.3	90.3	97.1	54	71.4	1	5	248	0.00	29.777 
18:45	90.3	90.3	97.1	54	71.4	1	5	248	0.00	29.777 
18:50	90.1	90.1	96.7	54	71.2	2	5	270	0.00	29.777 
18:55	89.7	89.7	96.4	55	71.3	2	5	270	0.00	29.777 
19:00	89.5	89.5	96.4	56	71.7	1	4	270	0.00	29.775 
19:05	89.3	89.3	96.0	56	71.5	2	5	270	0.00	29.775 
19:10	89.0	89.0	95.9	57	71.7	1	3	270	0.00	29.775 
19:15	89.0	89.0	95.4	56	71.2	1	4	248	0.00	29.774 
19:20	89.0	89.0	95.9	57	71.7	1	3	248	0.00	29.774 
19:25	89.0	89.0	95.9	57	71.7	1	4	270	0.00	29.774 
19:30	88.8	88.8	95.4	57	71.6	1	4	270	0.00	29.775 
19:35	88.6	88.6	95.5	58	71.9	1	4	270	0.00	29.775 
19:40	88.6	88.6	95.0	57	71.4	2	5	270	0.00	29.775 
19:45	88.4	88.4	95.1	58	71.7	1	4	270	0.00	29.779 
19:50	88.4	88.4	95.1	58	71.7	1	3	248	0.00	29.779 
19:55	88.2	88.2	93.8	56	70.5	1	3	248	0.00	29.779 
20:00	88.2	88.2	95.1	59	72.0	1	3	270	0.00	29.779 
20:05	88.0	88.0	94.7	59	71.8	1	4	270	0.00	29.779 
20:10	87.8	87.8	94.3	59	71.7	1	4	270	0.00	29.779 
20:15	87.8	87.8	94.7	60	72.1	1	3	270	0.00	29.776 
20:20	87.6	87.6	94.3	60	72.0	1	3	292	0.00	29.776 
20:25	87.4	87.4	93.9	60	71.8	1	4	292	0.00	29.776 
20:30	87.2	87.2	93.9	61	72.1	1	3	270	0.00	29.782 
20:35	87.2	87.2	93.9	61	72.1	1	4	270	0.00	29.782 
20:40	87.0	87.0	93.5	61	71.9	1	3	292	0.00	29.782 
20:45	87.0	87.0	93.9	62	72.4	1	3	315	0.00	29.786 
20:50	86.7	86.7	93.3	62	72.1	0	2	315	0.00	29.786 
20:55	86.5	86.5	92.8	62	71.9	0	2	270	0.00	29.786 
21:00	86.3	86.3	92.4	62	71.7	0	3	270	0.00	29.787 
21:05	86.3	86.3	92.4	62	71.7	1	3	270	0.00	29.787 
21:10	86.1	86.1	92.4	63	72.0	1	4	292	0.00	29.787 
21:15	86.1	86.1	92.4	63	72.0	1	4	270	0.00	29.782 
21:20	85.9	85.9	92.0	63	71.8	1	3	270	0.00	29.782 
21:25	85.9	85.9	92.0	63	71.8	0	3	270	0.00	29.782 
21:30	85.7	85.7	91.6	63	71.6	1	3	270	0.00	29.781 
21:35	85.5	85.5	91.6	64	71.9	0	2	338	0.00	29.781 
21:40	85.3	85.3	91.2	64	71.7	1	3	315	0.00	29.781 
21:45	85.3	85.3	91.2	64	71.7	0	1	315	0.00	29.774 
21:50	85.1	85.1	91.1	65	72.0	0	2	315	0.00	29.774 
21:55	84.9	84.9	90.7	65	71.8	1	3	315	0.00	29.774 
22:00	84.7	84.7	90.6	66	72.1	1	4	270	0.00	29.778 
22:05	84.5	84.5	90.2	66	71.9	0	4	270	0.00	29.778 
22:10	84.5	84.5	90.2	66	71.9	1	3	338	0.00	29.778 
22:15	84.3	84.3	89.8	66	71.7	1	3	225	0.00	29.775 
22:20	84.3	84.3	89.8	66	71.7	1	3	248	0.00	29.775 
22:25	84.1	84.1	89.4	66	71.5	1	4	248	0.00	29.775 
22:30	84.1	84.1	89.4	66	71.5	1	4	248	0.00	29.773 
22:35	84.0	84.0	89.2	66	71.4	1	3	292	0.00	29.773 
22:40	84.0	84.0	89.2	66	71.4	0	3	292	0.00	29.773 
22:45	83.8	83.8	88.6	65	70.7	1	4	292	0.00	29.779 
22:50	83.8	83.8	88.6	65	70.7	1	5	270	0.00	29.779 
22:55	83.8	83.8	88.6	65	70.7	1	4	270	0.00	29.779 
23:00	83.8	83.8	88.6	65	70.7	1	5	270	0.00	29.774 
23:05	83.6	83.6	88.2	65	70.6	1	5	292	0.00	29.774 
23:10	83.6	83.6	88.2	65	70.6	1	3	270	0.00	29.774 
23:15	83.4	83.4	87.8	65	70.4	1	5	270	0.00	29.773 
23:20	83.4	83.4	87.8	65	70.4	1	6	270	0.00	29.773 
23:25	83.4	83.4	87.8	65	70.4	1	4	270	0.00	29.773 
23:30	83.2	83.2	87.5	65	70.2	1	4	270	0.00	29.781 
23:35	83.2	83.2	87.5	65	70.2	1	5	270	0.00	29.781 
23:40	83.0	83.0	87.1	65	70.0	2	5	248	0.00	29.781 
23:45	83.0	83.0	87.1	65	70.0	1	3	248	0.00	29.785 
23:50	82.8	82.8	86.7	65	69.8	1	4	90	0.00	29.785 
23:55	82.8	82.8	87.0	66	70.3	1	4	248	0.00	29.785 

CoCoRaHS
IN-AL-39
A2 Web Hosting
Creative Commons License
GoDaddy
search engine by freefind advanced

loaded 2018-11-15 14:07:15 • last modified 2010-11-18 10:43:29
Privacy PolicyDisclaimer
• wx.awcolley.com is powered by PmWiki v.2002016 •
• all content (unless otherwise noted) © 2018 A W Colley